createdAt,value
2022-09-26T00:01:19.438Z,3.20
2022-09-26T00:03:50.739Z,3.47
2022-09-26T00:06:18.043Z,3.63
2022-09-26T00:08:45.455Z,3.57
2022-09-26T00:11:13.082Z,3.67
2022-09-26T00:13:40.610Z,3.53
2022-09-26T00:16:07.642Z,3.57
2022-09-26T00:18:34.379Z,3.13
2022-09-26T00:21:08.637Z,3.80
2022-09-26T00:23:35.538Z,3.40
2022-09-26T00:26:02.319Z,3.40
2022-09-26T00:28:30.056Z,3.33
2022-09-26T00:30:56.850Z,3.10
2022-09-26T00:33:24.120Z,3.33
2022-09-26T00:35:51.675Z,3.37
2022-09-26T00:38:18.652Z,3.30
2022-09-26T00:40:46.163Z,3.17
2022-09-26T00:43:34.484Z,3.30
2022-09-26T00:46:26.212Z,3.30
2022-09-26T00:48:59.707Z,3.13
2022-09-26T00:51:26.347Z,3.53
2022-09-26T00:53:53.239Z,3.30
2022-09-26T00:56:23.466Z,3.20
2022-09-26T00:59:01.060Z,3.20
2022-09-26T01:01:27.915Z,3.00
2022-09-26T01:03:54.601Z,3.03
2022-09-26T01:06:21.490Z,3.30
2022-09-26T01:08:58.983Z,2.90
2022-09-26T01:11:25.787Z,3.30
2022-09-26T01:13:52.810Z,3.00
2022-09-26T01:16:19.628Z,3.17
2022-09-26T01:18:46.385Z,3.10
2022-09-26T01:21:37.627Z,3.00
2022-09-26T01:24:10.518Z,3.00
2022-09-26T01:26:49.945Z,3.30
2022-09-26T01:30:04.336Z,2.67
2022-09-26T01:32:50.348Z,2.90
2022-09-26T01:35:19.192Z,3.00
2022-09-26T01:37:59.529Z,3.10
2022-09-26T01:40:43.759Z,3.07
2022-09-26T01:43:15.770Z,2.90
2022-09-26T01:45:45.056Z,2.70
2022-09-26T01:48:19.345Z,2.90
2022-09-26T01:50:55.496Z,2.90
2022-09-26T01:53:26.805Z,3.00
2022-09-26T01:56:05.065Z,2.70
2022-09-26T01:58:34.952Z,2.83
2022-09-26T02:01:03.961Z,2.80
2022-09-26T02:03:32.087Z,2.80
2022-09-26T02:06:08.273Z,2.80
2022-09-26T02:08:45.532Z,2.57
2022-09-26T02:11:19.997Z,2.93
2022-09-26T02:13:56.920Z,2.67
2022-09-26T02:16:38.382Z,2.90
2022-09-26T02:19:17.180Z,2.80
2022-09-26T02:21:43.939Z,2.70
2022-09-26T02:24:10.630Z,2.73
2022-09-26T02:26:37.211Z,2.77
2022-09-26T02:29:04.480Z,2.97
2022-09-26T02:31:33.225Z,2.80
2022-09-26T02:33:59.999Z,2.83
2022-09-26T02:36:26.951Z,2.60
2022-09-26T02:38:53.639Z,2.70
2022-09-26T02:41:59.224Z,2.73
2022-09-26T02:44:53.146Z,2.57
2022-09-26T02:47:28.059Z,2.60
2022-09-26T02:50:25.381Z,2.67
2022-09-26T02:53:12.719Z,2.60
2022-09-26T02:56:06.997Z,2.67
2022-09-26T02:58:45.642Z,2.70
2022-09-26T03:01:24.965Z,2.63
2022-09-26T03:04:05.417Z,2.90
2022-09-26T03:06:37.480Z,2.50
2022-09-26T03:09:04.154Z,2.57
2022-09-26T03:11:30.736Z,2.93
2022-09-26T03:13:57.404Z,2.70
2022-09-26T03:16:25.062Z,2.10
2022-09-26T03:18:56.588Z,2.60
2022-09-26T03:21:23.203Z,2.23
2022-09-26T03:23:50.304Z,2.37
2022-09-26T03:26:19.407Z,2.47
2022-09-26T03:28:46.224Z,2.57
2022-09-26T03:31:13.019Z,2.67
2022-09-26T03:33:40.424Z,2.47
2022-09-26T03:36:12.264Z,2.43
2022-09-26T03:38:39.032Z,2.20
2022-09-26T03:41:06.024Z,2.20
2022-09-26T03:43:32.645Z,2.50
2022-09-26T03:46:06.203Z,2.37
2022-09-26T03:48:33.527Z,2.43
2022-09-26T03:51:08.307Z,2.60
2022-09-26T03:53:35.812Z,2.20
2022-09-26T03:56:09.312Z,2.50
2022-09-26T03:58:36.148Z,2.33
2022-09-26T04:01:13.756Z,2.30
2022-09-26T04:03:45.202Z,2.20
2022-09-26T04:06:19.255Z,2.37
2022-09-26T04:08:47.422Z,2.30
2022-09-26T04:11:15.041Z,2.20
2022-09-26T04:13:57.392Z,2.40
2022-09-26T04:16:24.568Z,2.50
2022-09-26T04:18:56.569Z,2.40
2022-09-26T04:21:23.869Z,2.33
2022-09-26T04:23:50.480Z,2.47
2022-09-26T04:26:23.700Z,2.60
2022-09-26T04:28:52.056Z,2.50
2022-09-26T04:31:18.698Z,2.40
2022-09-26T04:33:45.337Z,2.43
2022-09-26T04:36:12.612Z,2.37
2022-09-26T04:38:39.316Z,2.40
2022-09-26T04:41:06.441Z,2.43
2022-09-26T04:43:33.106Z,2.13
2022-09-26T04:45:59.741Z,2.10
2022-09-26T04:48:26.715Z,2.00
2022-09-26T04:50:53.422Z,1.93
2022-09-26T04:53:19.983Z,2.03
2022-09-26T04:55:47.218Z,1.87
2022-09-26T04:58:14.407Z,1.90
2022-09-26T05:00:47.360Z,1.80
2022-09-26T05:03:14.317Z,2.00
2022-09-26T05:05:41.463Z,1.80
2022-09-26T05:08:09.397Z,1.90
2022-09-26T05:10:36.169Z,1.90
2022-09-26T05:13:03.353Z,2.00
2022-09-26T05:15:30.419Z,1.70
2022-09-26T05:17:59.366Z,1.83
2022-09-26T05:20:31.829Z,1.80
2022-09-26T05:22:58.651Z,1.70
2022-09-26T05:25:43.968Z,1.83
2022-09-26T05:28:10.571Z,1.43
2022-09-26T05:30:37.252Z,1.77
2022-09-26T05:33:04.660Z,1.70
2022-09-26T05:35:35.171Z,1.80
2022-09-26T05:38:02.688Z,1.80
2022-09-26T05:40:48.121Z,1.80
2022-09-26T05:43:14.788Z,1.70
2022-09-26T05:45:41.389Z,1.80
2022-09-26T05:48:07.976Z,1.80
2022-09-26T05:50:34.679Z,2.55
2022-09-26T05:53:01.663Z,2.40
2022-09-26T05:55:28.841Z,2.37
2022-09-26T05:57:58.372Z,2.23
2022-09-26T06:00:27.999Z,4.53
2022-09-26T06:02:58.432Z,4.47
2022-09-26T06:05:25.669Z,3.50
2022-09-26T06:07:52.798Z,13.53
2022-09-26T06:10:20.055Z,14.87
2022-09-26T06:12:50.803Z,20.70
2022-09-26T06:15:17.895Z,18.47
2022-09-26T06:17:44.967Z,33.17
2022-09-26T06:20:12.242Z,34.37
2022-09-26T06:22:40.261Z,22.80
2022-09-26T06:25:08.283Z,42.50
2022-09-26T06:27:38.532Z,64.83
2022-09-26T06:30:08.698Z,64.37
2022-09-26T06:32:39.106Z,41.83
2022-09-26T06:35:06.724Z,38.77
2022-09-26T06:37:33.463Z,38.70
2022-09-26T06:40:00.724Z,35.17
2022-09-26T06:42:27.387Z,34.85
2022-09-26T06:44:54.102Z,34.13
2022-09-26T06:47:20.764Z,38.43
2022-09-26T06:49:48.386Z,33.57
2022-09-26T06:52:14.981Z,35.10
2022-09-26T06:54:41.986Z,31.90
2022-09-26T06:57:14.247Z,27.50
2022-09-26T06:59:41.602Z,34.90
2022-09-26T07:02:09.427Z,27.33
2022-09-26T07:04:36.606Z,39.28
2022-09-26T07:07:04.438Z,31.27
2022-09-26T07:09:31.159Z,27.00
2022-09-26T07:12:15.128Z,26.65
2022-09-26T07:14:42.579Z,18.50
2022-09-26T07:17:13.782Z,19.13
2022-09-26T07:19:40.346Z,23.43
2022-09-26T07:22:07.938Z,20.97
2022-09-26T07:24:34.952Z,20.57
2022-09-26T07:27:02.061Z,19.80
2022-09-26T07:29:29.049Z,19.37
2022-09-26T07:31:55.847Z,21.37
2022-09-26T07:34:25.856Z,18.30
2022-09-26T07:36:52.859Z,17.60
2022-09-26T07:39:19.477Z,16.33
2022-09-26T07:41:46.644Z,16.45
2022-09-26T07:47:19.719Z,17.08
2022-09-26T07:50:05.060Z,15.90
2022-09-26T07:52:31.718Z,19.58
2022-09-26T07:54:58.290Z,12.97
2022-09-26T07:57:24.958Z,14.35
2022-09-26T07:59:51.665Z,19.13
2022-09-26T08:02:25.934Z,13.27
2022-09-26T08:05:00.254Z,12.23
2022-09-26T08:07:27.869Z,16.40
2022-09-26T08:09:54.676Z,13.18
2022-09-26T08:12:21.296Z,12.05
2022-09-26T08:14:49.104Z,14.52
2022-09-26T08:17:16.462Z,14.90
2022-09-26T08:19:43.186Z,11.73
2022-09-26T08:22:10.155Z,19.02
2022-09-26T08:24:37.171Z,11.00
2022-09-26T08:27:03.881Z,11.88
2022-09-26T08:29:34.122Z,11.38
2022-09-26T08:32:03.016Z,12.68
2022-09-26T08:34:32.095Z,10.10
2022-09-26T08:36:59.023Z,10.70
2022-09-26T08:39:28.046Z,9.03
2022-09-26T08:42:19.059Z,8.73
2022-09-26T08:45:32.452Z,6.57
2022-09-26T08:48:13.692Z,8.57
2022-09-26T08:50:51.865Z,8.50
2022-09-26T08:53:27.061Z,10.87
2022-09-26T08:55:53.820Z,9.40
2022-09-26T08:58:29.070Z,10.50
2022-09-26T09:00:59.138Z,11.63
2022-09-26T09:03:44.828Z,7.17
2022-09-26T09:06:12.498Z,8.63
2022-09-26T09:08:40.108Z,8.63
2022-09-26T09:11:25.840Z,8.77
2022-09-26T09:14:12.670Z,4.33
2022-09-26T09:16:53.143Z,8.63
2022-09-26T09:19:57.574Z,11.83
2022-09-26T09:22:31.478Z,13.40
2022-09-26T09:25:03.466Z,8.33
2022-09-26T09:28:03.977Z,10.17
2022-09-26T09:30:50.388Z,8.87
2022-09-26T09:33:23.435Z,5.77
2022-09-26T09:35:59.742Z,9.23
2022-09-26T09:38:28.287Z,9.00
2022-09-26T09:41:14.633Z,9.07
2022-09-26T09:44:00.591Z,8.53
2022-09-26T09:46:29.349Z,5.30
2022-09-26T09:49:08.119Z,7.77
2022-09-26T09:51:44.406Z,7.63
2022-09-26T09:54:48.623Z,9.77
2022-09-26T09:57:37.827Z,5.93
2022-09-26T10:00:17.278Z,7.82
2022-09-26T10:03:21.490Z,7.38
2022-09-26T10:05:50.274Z,7.27
2022-09-26T10:08:37.534Z,6.47
2022-09-26T10:11:23.021Z,8.77
2022-09-26T10:13:53.662Z,5.70
2022-09-26T10:16:22.597Z,7.90
2022-09-26T10:19:21.110Z,4.80
2022-09-26T10:21:48.567Z,4.57
2022-09-26T10:24:41.113Z,5.20
2022-09-26T10:27:18.942Z,6.67
2022-09-26T10:29:45.619Z,3.90
2022-09-26T10:32:12.355Z,7.50
2022-09-26T10:34:39.378Z,4.83
2022-09-26T10:37:22.386Z,6.20
2022-09-26T10:40:15.061Z,6.13
2022-09-26T10:42:46.559Z,7.60
2022-09-26T10:45:20.219Z,10.10
2022-09-26T10:47:46.854Z,6.20
2022-09-26T10:50:18.244Z,7.97
2022-09-26T10:52:51.236Z,8.03
2022-09-26T10:55:25.506Z,6.53
2022-09-26T10:57:57.855Z,8.50
2022-09-26T11:00:33.789Z,8.50
2022-09-26T11:03:00.699Z,7.07
2022-09-26T11:05:46.161Z,5.93
2022-09-26T11:08:14.072Z,7.07
2022-09-26T11:10:42.011Z,5.93
2022-09-26T11:13:24.040Z,5.20
2022-09-26T11:16:11.099Z,6.00
2022-09-26T11:19:07.808Z,5.23
2022-09-26T11:22:08.325Z,5.97
2022-09-26T11:24:59.391Z,6.67
2022-09-26T11:27:38.528Z,6.70
2022-09-26T11:30:09.505Z,5.80
2022-09-26T11:32:43.255Z,6.03
2022-09-26T11:35:13.474Z,4.30
2022-09-26T11:37:50.842Z,4.80
2022-09-26T11:40:20.707Z,9.33
2022-09-26T11:43:17.421Z,5.60
2022-09-26T11:45:57.345Z,3.90
2022-09-26T11:48:33.012Z,4.53
2022-09-26T11:51:12.277Z,7.70
2022-09-26T11:54:09.492Z,5.33
2022-09-26T11:56:45.310Z,8.43
2022-09-26T11:59:18.718Z,4.90
2022-09-26T12:01:55.828Z,4.03
2022-09-26T12:04:49.831Z,5.60
2022-09-26T12:07:22.274Z,5.23
2022-09-26T12:10:08.159Z,5.90
2022-09-26T12:12:44.039Z,4.37
2022-09-26T12:15:20.159Z,5.17
2022-09-26T12:17:59.615Z,4.57
2022-09-26T12:20:28.397Z,3.93
2022-09-26T12:23:09.840Z,7.13
2022-09-26T12:25:48.005Z,5.13
2022-09-26T12:28:26.947Z,4.87
2022-09-26T12:31:19.313Z,6.47
2022-09-26T12:34:08.084Z,4.87
2022-09-26T12:36:48.923Z,8.07
2022-09-26T12:40:09.314Z,6.37
2022-09-26T12:43:14.698Z,4.97
2022-09-26T12:46:03.255Z,3.83
2022-09-26T12:48:32.788Z,2.67
2022-09-26T12:51:28.689Z,2.63
2022-09-26T12:54:10.347Z,4.73
2022-09-26T12:56:54.595Z,9.97
2022-09-26T12:59:35.308Z,3.67
2022-09-26T13:02:13.630Z,3.17
2022-09-26T13:05:06.253Z,4.80
2022-09-26T13:08:07.172Z,6.63
2022-09-26T13:10:48.058Z,4.00
2022-09-26T13:13:18.093Z,4.73
2022-09-26T13:16:23.728Z,3.93
2022-09-26T13:19:02.133Z,5.40
2022-09-26T13:21:44.775Z,5.60
2022-09-26T13:24:18.845Z,4.40
2022-09-26T13:26:54.097Z,4.60
2022-09-26T13:29:29.087Z,4.17
2022-09-26T13:32:36.629Z,3.47
2022-09-26T13:35:08.071Z,6.93
2022-09-26T13:38:04.005Z,4.43
2022-09-26T13:41:04.254Z,2.97
2022-09-26T13:43:53.393Z,5.47
2022-09-26T13:46:26.875Z,6.07
2022-09-26T13:49:00.788Z,4.30
2022-09-26T13:51:40.475Z,7.37
2022-09-26T13:54:24.242Z,5.33
2022-09-26T13:56:50.999Z,5.70
2022-09-26T13:59:23.328Z,5.00
2022-09-26T14:02:18.004Z,5.03
2022-09-26T14:04:45.967Z,3.13
2022-09-26T14:07:32.159Z,7.13
2022-09-26T14:10:01.964Z,4.37
2022-09-26T14:12:51.503Z,4.77
2022-09-26T14:15:24.135Z,9.03
2022-09-26T14:17:50.813Z,6.97
2022-09-26T14:20:20.233Z,5.40
2022-09-26T14:22:51.261Z,6.73
2022-09-26T14:25:46.138Z,7.50
2022-09-26T14:28:34.188Z,9.87
2022-09-26T14:31:16.021Z,6.13
2022-09-26T14:33:43.013Z,9.17
2022-09-26T14:36:33.461Z,8.97
2022-09-26T14:39:00.107Z,8.63
2022-09-26T14:41:28.527Z,8.00
2022-09-26T14:44:04.179Z,5.40
2022-09-26T14:46:35.507Z,5.23
2022-09-26T14:49:05.220Z,7.83
2022-09-26T14:51:37.093Z,7.13
2022-09-26T14:54:19.208Z,7.17
2022-09-26T14:56:50.262Z,9.80
2022-09-26T14:59:16.915Z,8.33
2022-09-26T15:01:43.981Z,9.37
2022-09-26T15:04:20.875Z,10.10
2022-09-26T15:06:50.178Z,9.03
2022-09-26T15:09:47.689Z,12.27
2022-09-26T15:12:39.899Z,10.80
2022-09-26T15:15:33.775Z,7.87
2022-09-26T15:18:08.156Z,7.17
2022-09-26T15:20:39.399Z,5.97
2022-09-26T15:23:23.752Z,7.03
2022-09-26T15:25:51.103Z,9.03
2022-09-26T15:28:18.750Z,9.73
2022-09-26T15:30:45.698Z,8.63
2022-09-26T15:33:18.673Z,4.43
2022-09-26T15:35:54.517Z,8.90
2022-09-26T15:38:21.101Z,5.73
2022-09-26T15:41:00.294Z,7.13
2022-09-26T15:43:27.092Z,6.37
2022-09-26T15:45:58.523Z,5.50
2022-09-26T15:48:25.461Z,4.40
2022-09-26T15:50:53.869Z,4.47
2022-09-26T15:53:42.636Z,6.47
2022-09-26T15:56:12.642Z,4.10
2022-09-26T15:58:54.344Z,6.63
2022-09-26T16:01:21.884Z,3.47
2022-09-26T16:03:57.097Z,7.03
2022-09-26T16:06:52.859Z,5.73
2022-09-26T16:09:37.729Z,4.63
2022-09-26T16:12:16.322Z,4.50
2022-09-26T16:15:11.213Z,5.50
2022-09-26T16:17:49.110Z,5.27
2022-09-26T16:20:16.010Z,4.33
2022-09-26T16:22:45.560Z,5.20
2022-09-26T16:25:18.627Z,4.30
2022-09-26T16:27:52.341Z,4.67
2022-09-26T16:30:28.162Z,4.37
2022-09-26T16:33:04.845Z,5.33
2022-09-26T16:35:33.374Z,2.93
2022-09-26T16:38:00.635Z,5.60
2022-09-26T16:40:28.116Z,4.93
2022-09-26T16:43:02.710Z,4.13
2022-09-26T16:45:29.285Z,4.77
2022-09-26T16:47:55.940Z,5.07
2022-09-26T16:50:33.075Z,3.07
2022-09-26T16:53:00.254Z,3.70
2022-09-26T16:55:27.198Z,3.03
2022-09-26T16:57:55.739Z,4.67
2022-09-26T17:00:42.935Z,3.57
2022-09-26T17:03:23.328Z,4.50
2022-09-26T17:05:50.644Z,4.87
2022-09-26T17:08:18.345Z,3.17
2022-09-26T17:10:45.563Z,2.50
2022-09-26T17:13:22.572Z,2.53
2022-09-26T17:15:50.427Z,3.43
2022-09-26T17:18:19.804Z,2.53
2022-09-26T17:20:46.437Z,3.80
2022-09-26T17:23:35.324Z,3.30
2022-09-26T17:25:59.966Z,3.50
2022-09-26T17:28:30.371Z,2.47
2022-09-26T17:30:57.901Z,3.73
2022-09-26T17:33:27.213Z,3.57
2022-09-26T17:35:53.878Z,3.90
2022-09-26T17:38:20.527Z,4.27
2022-09-26T17:40:47.927Z,2.80
2022-09-26T17:43:14.743Z,3.90
2022-09-26T17:45:46.510Z,2.83
2022-09-26T17:48:16.700Z,3.97
2022-09-26T17:50:43.402Z,1.40
2022-09-26T17:53:12.200Z,4.43
2022-09-26T17:55:38.867Z,2.70
2022-09-26T17:58:10.207Z,2.53
2022-09-26T18:00:40.297Z,2.43
2022-09-26T18:03:08.385Z,2.77
2022-09-26T18:05:36.601Z,2.30
2022-09-26T18:08:24.169Z,2.43
2022-09-26T18:10:52.865Z,2.17
2022-09-26T18:13:24.979Z,2.20
2022-09-26T18:15:55.556Z,2.33
2022-09-26T18:18:23.179Z,3.67
2022-09-26T18:20:49.948Z,1.70
2022-09-26T18:23:20.701Z,3.53
2022-09-26T18:25:48.215Z,3.53
2022-09-26T18:28:16.455Z,3.63
2022-09-26T18:30:44.545Z,2.27
2022-09-26T18:33:11.915Z,3.93
2022-09-26T18:35:41.872Z,2.33
2022-09-26T18:38:08.833Z,3.13
2022-09-26T18:40:39.910Z,1.60
2022-09-26T18:43:07.610Z,2.53
2022-09-26T18:45:35.803Z,3.07
2022-09-26T18:48:12.146Z,2.33
2022-09-26T18:50:39.169Z,2.73
2022-09-26T18:53:19.544Z,1.60
2022-09-26T18:56:04.912Z,1.73
2022-09-26T18:58:32.363Z,2.10
2022-09-26T19:01:07.285Z,3.03
2022-09-26T19:03:39.021Z,1.87
2022-09-26T19:06:13.554Z,1.50
2022-09-26T19:08:41.152Z,3.63
2022-09-26T19:11:16.025Z,1.73
2022-09-26T19:13:44.043Z,2.83
2022-09-26T19:16:10.827Z,1.50
2022-09-26T19:18:37.551Z,1.40
2022-09-26T19:21:05.336Z,1.93
2022-09-26T19:23:35.406Z,1.87
2022-09-26T19:26:02.634Z,1.80
2022-09-26T19:28:38.399Z,2.67
2022-09-26T19:31:05.269Z,1.50
2022-09-26T19:33:32.730Z,1.57
2022-09-26T19:35:59.467Z,2.37
2022-09-26T19:38:26.561Z,2.00
2022-09-26T19:40:53.821Z,1.33
2022-09-26T19:43:21.279Z,1.73
2022-09-26T19:45:51.935Z,3.23
2022-09-26T19:48:20.907Z,1.57
2022-09-26T19:50:48.227Z,1.43
2022-09-26T19:53:16.466Z,1.87
2022-09-26T19:55:43.134Z,1.20
2022-09-26T19:58:38.297Z,1.60
2022-09-26T20:01:14.230Z,4.17
2022-09-26T20:03:41.807Z,2.57
2022-09-26T20:06:19.044Z,1.30
2022-09-26T20:08:45.664Z,1.63
2022-09-26T20:11:13.450Z,2.57
2022-09-26T20:14:00.511Z,2.83
2022-09-26T20:16:27.547Z,2.83
2022-09-26T20:18:55.793Z,1.20
2022-09-26T20:21:24.767Z,1.90
2022-09-26T20:23:51.376Z,1.67
2022-09-26T20:26:18.141Z,1.43
2022-09-26T20:28:44.753Z,1.53
2022-09-26T20:31:22.639Z,2.03
2022-09-26T20:33:51.102Z,1.37
2022-09-26T20:36:31.983Z,1.50
2022-09-26T20:39:00.449Z,1.93
2022-09-26T20:41:30.759Z,2.40
2022-09-26T20:44:01.711Z,1.47
2022-09-26T20:46:33.563Z,1.47
2022-09-26T20:49:02.355Z,1.27
2022-09-26T20:51:29.934Z,1.30
2022-09-26T20:53:59.961Z,1.30
2022-09-26T20:56:26.755Z,1.30
2022-09-26T20:58:53.349Z,1.90
2022-09-26T21:01:20.520Z,1.70
2022-09-26T21:03:48.906Z,1.40
2022-09-26T21:06:19.736Z,2.03
2022-09-26T21:08:46.513Z,1.27
2022-09-26T21:11:15.066Z,1.73
2022-09-26T21:13:42.308Z,1.23
2022-09-26T21:16:13.450Z,1.50
2022-09-26T21:18:40.149Z,1.80
2022-09-26T21:21:08.069Z,1.30
2022-09-26T21:23:41.941Z,1.77
2022-09-26T21:26:17.264Z,1.40
2022-09-26T21:28:43.980Z,1.43
2022-09-26T21:31:11.119Z,1.40
2022-09-26T21:33:38.232Z,1.30
2022-09-26T21:36:04.882Z,1.30
2022-09-26T21:38:31.454Z,1.50
2022-09-26T21:40:58.466Z,1.43
2022-09-26T21:43:26.810Z,2.37
2022-09-26T21:45:53.473Z,2.40
2022-09-26T21:48:20.125Z,1.33
2022-09-26T21:50:52.868Z,1.33
2022-09-26T21:53:24.422Z,1.33
2022-09-26T21:55:53.904Z,1.83
2022-09-26T21:58:26.085Z,1.10
2022-09-26T22:00:52.945Z,1.37
2022-09-26T22:03:19.910Z,1.17
2022-09-26T22:05:46.832Z,1.50
2022-09-26T22:08:13.459Z,1.20
2022-09-26T22:10:40.080Z,1.30
2022-09-26T22:13:06.770Z,1.40
2022-09-26T22:15:33.563Z,1.47
2022-09-26T22:18:00.270Z,1.27
2022-09-26T22:20:26.846Z,1.40
2022-09-26T22:22:53.716Z,1.30
2022-09-26T22:25:20.370Z,1.40
2022-09-26T22:27:47.227Z,1.20
2022-09-26T22:30:14.211Z,1.40
2022-09-26T22:32:40.850Z,1.27
2022-09-26T22:35:07.641Z,1.40
2022-09-26T22:37:34.396Z,1.40
2022-09-26T22:40:01.220Z,1.30
2022-09-26T22:42:27.868Z,1.30
2022-09-26T22:44:54.465Z,1.30
2022-09-26T22:47:21.099Z,1.20
2022-09-26T22:49:47.911Z,1.10
2022-09-26T22:52:14.507Z,1.40
2022-09-26T22:54:41.114Z,1.13
2022-09-26T22:57:08.823Z,1.37
2022-09-26T22:59:35.396Z,1.30
2022-09-26T23:02:01.991Z,1.20
2022-09-26T23:04:46.838Z,1.90
2022-09-26T23:07:14.502Z,1.27
2022-09-26T23:09:41.132Z,1.07
2022-09-26T23:12:07.744Z,1.10
2022-09-26T23:14:34.696Z,1.37
2022-09-26T23:17:01.637Z,1.23
2022-09-26T23:19:28.300Z,1.20
2022-09-26T23:21:54.934Z,1.17
2022-09-26T23:24:21.590Z,1.50
2022-09-26T23:26:48.207Z,1.43
2022-09-26T23:29:14.910Z,1.10
2022-09-26T23:31:41.567Z,1.30
2022-09-26T23:34:08.152Z,2.20
2022-09-26T23:36:34.727Z,1.10
2022-09-26T23:39:01.375Z,1.10
2022-09-26T23:41:28.260Z,1.07
2022-09-26T23:43:54.862Z,1.27
2022-09-26T23:46:21.487Z,1.00
2022-09-26T23:48:48.126Z,1.20
2022-09-26T23:51:15.025Z,1.27
2022-09-26T23:53:41.735Z,1.77
2022-09-26T23:56:09.986Z,1.47
2022-09-26T23:58:37.098Z,2.07
